METAR Data
IDs: Format: Raw Decoded Include TAF

Data at: 1343 UTC 26 Feb 2021

EGLL 261320Z AUTO 28005KT 220V320 9999 FEW041 11/01 Q1037 NOSIG